Time,TemperatureF,DewpointF,PressureIn,WindDirection,WindDirectionDegrees,WindSpeedMPH,WindSpeedGustMPH,Humidity,HourlyPrecipIn,Conditions,Clouds,dailyrainin,SolarRadiationWatts/m^2,SoftwareType,DateUTC
2013-02-04 00:02:00,49.5,31.6,29.87,SSE,165,11.5,11.5,50,0.00,CLR,,0.00,0.0,WeatherDisplay:10.37,2013-02-04 06:02:00,
2013-02-04 00:07:00,49.4,31.5,29.87,South,180,8.1,8.1,50,0.00,CLR,,0.00,0.0,WeatherDisplay:10.37,2013-02-04 06:07:00,
2013-02-04 00:12:00,49.3,31.9,29.86,SSW,195,7.0,7.1,51,0.00,CLR,,0.00,0.0,WeatherDisplay:10.37,2013-02-04 06:12:00,
2013-02-04 00:17:00,49.2,31.8,29.86,South,180,10.4,10.4,51,0.00,CLR,,0.00,0.0,WeatherDisplay:10.37,2013-02-04 06:17:00,
2013-02-04 00:22:00,49.1,31.7,29.86,South,187,9.2,9.2,51,0.00,CLR,,0.00,0.0,WeatherDisplay:10.37,2013-02-04 06:22:00,
2013-02-04 00:27:00,49.0,31.6,29.86,SE,140,6.9,6.9,51,0.00,CLR,,0.00,0.0,WeatherDisplay:10.37,2013-02-04 06:27:00,
2013-02-04 00:32:00,48.9,31.5,29.86,SE,140,6.9,6.9,51,0.00,CLR,,0.00,0.0,WeatherDisplay:10.37,2013-02-04 06:32:00,
2013-02-04 00:37:00,48.8,31.9,29.86,SE,136,5.8,5.8,52,0.00,CLR,,0.00,0.0,WeatherDisplay:10.37,2013-02-04 06:37:00,
2013-02-04 00:42:00,48.7,31.8,29.85,SSE,154,8.1,8.1,52,0.00,CLR,,0.00,0.0,WeatherDisplay:10.37,2013-02-04 06:42:00,
2013-02-04 00:47:00,48.5,31.7,29.85,South,180,5.8,5.8,52,0.00,CLR,,0.00,0.0,WeatherDisplay:10.37,2013-02-04 06:47:00,
2013-02-04 00:52:00,48.5,32.1,29.84,SSW,207,11.5,11.5,53,0.00,CLR,,0.00,0.0,WeatherDisplay:10.37,2013-02-04 06:52:00,
2013-02-04 00:57:00,48.4,32.0,29.85,SSE,167,3.5,3.5,53,0.00,CLR,,0.00,0.0,WeatherDisplay:10.37,2013-02-04 06:57:00,
2013-02-04 01:02:00,48.3,31.9,29.85,SE,136,10.0,10.0,53,0.00,CLR,,0.00,0.0,WeatherDisplay:10.37,2013-02-04 07:02:00,
2013-02-04 01:07:00,48.3,31.9,29.84,South,180,10.0,10.0,53,0.00,CLR,,0.00,0.0,WeatherDisplay:10.37,2013-02-04 07:07:00,
2013-02-04 01:12:00,48.2,31.9,29.84,South,176,10.4,10.4,53,0.00,CLR,,0.00,0.0,WeatherDisplay:10.37,2013-02-04 07:12:00,
2013-02-04 01:17:00,48.1,32.2,29.84,SSE,156,8.0,8.0,54,0.00,CLR,,0.00,0.0,WeatherDisplay:10.37,2013-02-04 07:17:00,
2013-02-04 01:22:00,48.0,32.1,29.84,South,179,9.2,9.2,54,0.00,CLR,,0.00,0.0,WeatherDisplay:10.37,2013-02-04 07:22:00,
2013-02-04 01:27:00,47.8,31.9,29.83,SSE,168,8.1,8.1,54,0.00,CLR,,0.00,0.0,WeatherDisplay:10.37,2013-02-04 07:27:00,
2013-02-04 01:32:00,47.7,32.3,29.83,SSE,165,6.9,6.9,55,0.00,CLR,,0.00,0.0,WeatherDisplay:10.37,2013-02-04 07:32:00,
2013-02-04 01:37:00,47.7,32.3,29.83,South,179,11.5,11.5,55,0.00,CLR,,0.00,0.0,WeatherDisplay:10.37,2013-02-04 07:37:00,
2013-02-04 01:42:00,47.7,32.3,29.83,SE,146,9.2,9.2,55,0.00,CLR,,0.00,0.0,WeatherDisplay:10.37,2013-02-04 07:42:00,
2013-02-04 01:47:00,47.6,32.2,29.83,South,179,9.2,9.2,55,0.00,CLR,,0.00,0.0,WeatherDisplay:10.37,2013-02-04 07:47:00,
2013-02-04 01:52:00,47.5,32.1,29.83,South,172,8.1,8.1,55,0.00,CLR,,0.00,0.0,WeatherDisplay:10.37,2013-02-04 07:52:00,
2013-02-04 01:57:00,47.5,32.1,29.83,SE,146,8.1,8.1,55,0.00,CLR,,0.00,0.0,WeatherDisplay:10.37,2013-02-04 07:57:00,
2013-02-04 02:02:00,47.4,32.0,29.83,SE,142,8.1,8.1,55,0.00,CLR,,0.00,0.0,WeatherDisplay:10.37,2013-02-04 08:02:00,
2013-02-04 02:07:00,47.4,32.5,29.83,South,184,4.6,4.6,56,0.00,CLR,,0.00,0.0,WeatherDisplay:10.37,2013-02-04 08:07:00,
2013-02-04 02:12:00,47.4,32.5,29.83,South,180,8.1,8.1,56,0.00,CLR,,0.00,0.0,WeatherDisplay:10.37,2013-02-04 08:12:00,
2013-02-04 02:17:00,47.3,32.4,29.83,South,181,5.8,5.8,56,0.00,CLR,,0.00,0.0,WeatherDisplay:10.37,2013-02-04 08:17:00,
2013-02-04 02:22:00,47.3,32.4,29.83,SSE,162,6.9,6.9,56,0.00,CLR,,0.00,0.0,WeatherDisplay:10.37,2013-02-04 08:22:00,
2013-02-04 02:27:00,47.3,32.4,29.83,South,176,8.1,8.1,56,0.00,CLR,,0.00,0.0,WeatherDisplay:10.37,2013-02-04 08:27:00,
2013-02-04 02:32:00,47.3,32.4,29.82,South,172,9.2,9.2,56,0.00,CLR,,0.00,0.0,WeatherDisplay:10.37,2013-02-04 08:32:00,
2013-02-04 02:37:00,47.3,32.4,29.82,South,189,4.6,4.6,56,0.00,CLR,,0.00,0.0,WeatherDisplay:10.37,2013-02-04 08:37:00,
2013-02-04 02:42:00,47.2,32.3,29.82,SSW,206,5.8,5.8,56,0.00,CLR,,0.00,0.0,WeatherDisplay:10.37,2013-02-04 08:42:00,
2013-02-04 02:47:00,47.2,32.3,29.82,SSE,161,5.8,5.8,56,0.00,CLR,,0.00,0.0,WeatherDisplay:10.37,2013-02-04 08:47:00,
2013-02-04 02:52:00,47.2,32.3,29.82,SSW,194,8.1,8.1,56,0.00,CLR,,0.00,0.0,WeatherDisplay:10.37,2013-02-04 08:52:00,
2013-02-04 02:57:00,47.2,32.3,29.82,SSE,165,6.9,6.9,56,0.00,CLR,,0.00,0.0,WeatherDisplay:10.37,2013-02-04 08:57:00,
2013-02-04 03:02:00,47.2,32.3,29.82,South,189,6.9,6.9,56,0.00,CLR,,0.00,0.0,WeatherDisplay:10.37,2013-02-04 09:02:00,
2013-02-04 03:07:00,47.2,32.3,29.82,SSE,157,8.1,8.1,56,0.00,CLR,,0.00,0.0,WeatherDisplay:10.37,2013-02-04 09:07:00,
2013-02-04 03:12:00,47.2,32.3,29.82,South,189,5.8,5.8,56,0.00,CLR,,0.00,0.0,WeatherDisplay:10.37,2013-02-04 09:12:00,
2013-02-04 03:17:00,47.2,32.3,29.83,South,178,5.8,5.8,56,0.00,CLR,,0.00,0.0,WeatherDisplay:10.37,2013-02-04 09:17:00,
2013-02-04 03:22:00,47.1,32.2,29.83,West,263,3.5,3.5,56,0.00,CLR,,0.00,0.0,WeatherDisplay:10.37,2013-02-04 09:22:00,
2013-02-04 03:27:00,46.9,32.4,29.84,West,278,3.5,3.5,57,0.00,CLR,,0.00,0.0,WeatherDisplay:10.37,2013-02-04 09:27:00,
2013-02-04 03:32:00,46.6,32.2,29.84,WNW,284,3.5,3.5,57,0.00,CLR,,0.00,0.0,WeatherDisplay:10.37,2013-02-04 09:32:00,
2013-02-04 03:37:00,46.4,32.4,29.85,NW,304,4.6,4.6,58,0.00,CLR,,0.00,0.0,WeatherDisplay:10.37,2013-02-04 09:37:00,
2013-02-04 03:42:00,46.2,32.2,29.84,West,277,3.5,3.5,58,0.00,CLR,,0.00,0.0,WeatherDisplay:10.37,2013-02-04 09:42:00,
2013-02-04 03:47:00,46.0,32.0,29.84,West,265,1.1,0.0,58,0.00,CLR,,0.00,0.0,WeatherDisplay:10.37,2013-02-04 09:47:00,
2013-02-04 03:52:00,45.7,31.8,29.84,West,265,0.0,0.0,58,0.00,CLR,,0.00,0.0,WeatherDisplay:10.37,2013-02-04 09:52:00,
2013-02-04 03:57:00,45.4,31.9,29.83,West,265,0.0,0.0,59,0.00,CLR,,0.00,0.0,WeatherDisplay:10.37,2013-02-04 09:57:00,
2013-02-04 04:02:00,45.0,31.5,29.84,West,265,0.0,0.0,59,0.00,CLR,,0.00,0.0,WeatherDisplay:10.37,2013-02-04 10:02:00,
2013-02-04 04:07:00,44.5,31.5,29.84,West,265,0.0,0.0,60,0.00,CLR,,0.00,0.0,WeatherDisplay:10.37,2013-02-04 10:07:00,
2013-02-04 04:12:00,44.0,31.4,29.84,West,265,0.0,0.0,61,0.00,CLR,,0.00,0.0,WeatherDisplay:10.37,2013-02-04 10:12:00,
2013-02-04 04:17:00,43.6,31.4,29.84,West,265,0.0,0.0,62,0.00,CLR,,0.00,0.0,WeatherDisplay:10.37,2013-02-04 10:17:00,
2013-02-04 04:22:00,43.0,31.3,29.84,West,265,0.0,0.0,63,0.00,CLR,,0.00,0.0,WeatherDisplay:10.37,2013-02-04 10:22:00,
2013-02-04 04:27:00,42.5,31.2,29.84,West,265,0.0,0.0,64,0.00,CLR,,0.00,0.0,WeatherDisplay:10.37,2013-02-04 10:27:00,
2013-02-04 04:32:00,42.0,30.7,29.84,West,265,0.0,0.0,64,0.00,CLR,,0.00,0.0,WeatherDisplay:10.37,2013-02-04 10:32:00,
2013-02-04 04:37:00,41.5,30.6,29.84,West,265,0.0,0.0,65,0.00,CLR,,0.00,0.0,WeatherDisplay:10.37,2013-02-04 10:37:00,
2013-02-04 04:42:00,40.9,30.4,29.85,West,265,3.5,3.5,66,0.00,CLR,,0.00,0.0,WeatherDisplay:10.37,2013-02-04 10:42:00,
2013-02-04 04:47:00,40.4,30.3,29.85,West,265,1.1,1.1,67,0.00,CLR,,0.00,0.0,WeatherDisplay:10.37,2013-02-04 10:47:00,
2013-02-04 04:52:00,40.1,30.7,29.84,West,265,2.3,0.0,69,0.00,CLR,,0.00,0.0,WeatherDisplay:10.37,2013-02-04 10:52:00,
2013-02-04 04:57:00,39.8,30.5,29.84,West,265,0.0,0.0,69,0.00,CLR,,0.00,0.0,WeatherDisplay:10.37,2013-02-04 10:57:00,
2013-02-04 05:02:00,39.5,30.5,29.84,West,265,0.0,0.0,70,0.00,CLR,,0.00,0.0,WeatherDisplay:10.37,2013-02-04 11:02:00,
2013-02-04 05:07:00,39.4,30.8,29.84,West,265,0.0,0.0,71,0.00,CLR,,0.00,0.0,WeatherDisplay:10.37,2013-02-04 11:07:00,
2013-02-04 05:12:00,39.3,30.3,29.84,West,265,0.0,0.0,70,0.00,CLR,,0.00,0.0,WeatherDisplay:10.37,2013-02-04 11:12:00,
2013-02-04 05:17:00,39.1,30.1,29.84,West,265,0.0,0.0,70,0.00,CLR,,0.00,0.0,WeatherDisplay:10.37,2013-02-04 11:17:00,
2013-02-04 05:22:00,38.8,30.2,29.84,West,265,0.0,0.0,71,0.00,CLR,,0.00,0.0,WeatherDisplay:10.37,2013-02-04 11:22:00,
2013-02-04 05:27:00,38.6,30.4,29.85,West,265,0.0,0.0,72,0.00,CLR,,0.00,0.0,WeatherDisplay:10.37,2013-02-04 11:27:00,
2013-02-04 05:32:00,38.1,29.5,29.85,West,265,0.0,0.0,71,0.00,CLR,,0.00,0.0,WeatherDisplay:10.37,2013-02-04 11:32:00,
2013-02-04 05:37:00,37.7,29.5,29.85,West,265,0.0,0.0,72,0.00,CLR,,0.00,0.0,WeatherDisplay:10.37,2013-02-04 11:37:00,
2013-02-04 05:42:00,37.3,29.4,29.85,West,265,1.1,1.1,73,0.00,CLR,,0.00,0.0,WeatherDisplay:10.37,2013-02-04 11:42:00,
2013-02-04 05:47:00,36.9,29.4,29.85,West,265,1.1,1.1,74,0.00,CLR,,0.00,0.0,WeatherDisplay:10.37,2013-02-04 11:47:00,
2013-02-04 05:52:00,36.6,29.4,29.85,West,265,0.0,0.0,75,0.00,CLR,,0.00,0.0,WeatherDisplay:10.37,2013-02-04 11:52:00,
2013-02-04 05:57:00,36.2,29.4,29.85,West,265,2.3,0.0,76,0.00,CLR,,0.00,0.0,WeatherDisplay:10.37,2013-02-04 11:57:00,
2013-02-04 06:02:00,36.0,29.2,29.86,West,265,0.0,0.1,76,0.00,CLR,,0.00,0.0,WeatherDisplay:10.37,2013-02-04 12:02:00,
2013-02-04 06:07:00,35.7,29.2,29.86,West,265,1.1,1.1,77,0.00,CLR,,0.00,0.0,WeatherDisplay:10.37,2013-02-04 12:07:00,
2013-02-04 06:12:00,35.5,29.0,29.86,West,281,3.5,3.5,77,0.00,CLR,,0.00,0.0,WeatherDisplay:10.37,2013-02-04 12:12:00,
2013-02-04 06:17:00,35.2,29.0,29.86,West,281,2.3,2.3,78,0.00,CLR,,0.00,0.0,WeatherDisplay:10.37,2013-02-04 12:17:00,
2013-02-04 06:22:00,35.0,29.1,29.86,WNW,301,3.5,3.5,79,0.00,CLR,,0.00,0.0,WeatherDisplay:10.37,2013-02-04 12:22:00,
2013-02-04 06:27:00,35.2,29.6,29.86,NW,313,4.0,4.0,80,0.00,CLR,,0.00,0.0,WeatherDisplay:10.37,2013-02-04 12:27:00,
2013-02-04 06:32:00,35.7,30.1,29.86,West,271,4.0,4.0,80,0.00,CLR,,0.00,0.0,WeatherDisplay:10.37,2013-02-04 12:32:00,
2013-02-04 06:37:00,36.6,30.4,29.86,WNW,287,6.9,6.9,78,0.00,CLR,,0.00,0.0,WeatherDisplay:10.37,2013-02-04 12:37:00,
2013-02-04 06:42:00,37.2,30.3,29.86,NW,315,3.5,3.5,76,0.00,CLR,,0.00,0.0,WeatherDisplay:10.37,2013-02-04 12:42:00,
2013-02-04 06:47:00,37.9,30.4,29.86,NNW,329,6.9,6.9,74,0.00,CLR,,0.00,0.0,WeatherDisplay:10.37,2013-02-04 12:47:00,
2013-02-04 06:52:00,38.4,30.5,29.87,NNW,331,6.9,6.9,73,0.00,CLR,,0.00,0.0,WeatherDisplay:10.37,2013-02-04 12:52:00,
2013-02-04 06:57:00,38.6,30.4,29.87,NW,316,9.2,9.2,72,0.00,CLR,,0.00,0.0,WeatherDisplay:10.37,2013-02-04 12:57:00,
2013-02-04 07:02:00,38.6,30.4,29.87,NW,323,5.8,5.8,72,0.00,CLR,,0.00,0.0,WeatherDisplay:10.37,2013-02-04 13:02:00,
2013-02-04 07:07:00,38.6,30.0,29.87,NW,321,6.9,6.9,71,0.00,CLR,,0.00,0.0,WeatherDisplay:10.37,2013-02-04 13:07:00,
2013-02-04 07:12:00,38.6,30.0,29.87,WNW,285,9.2,9.2,71,0.00,CLR,,0.00,0.0,WeatherDisplay:10.37,2013-02-04 13:12:00,
2013-02-04 07:17:00,38.7,30.1,29.87,NW,311,6.0,6.0,71,0.00,CLR,,0.00,0.0,WeatherDisplay:10.37,2013-02-04 13:17:00,
2013-02-04 07:22:00,38.8,30.2,29.88,NW,322,8.1,8.1,71,0.00,CLR,,0.00,0.0,WeatherDisplay:10.37,2013-02-04 13:22:00,
2013-02-04 07:27:00,38.6,30.0,29.88,NW,313,6.9,6.9,71,0.00,CLR,,0.00,0.0,WeatherDisplay:10.37,2013-02-04 13:27:00,
2013-02-04 07:32:00,38.4,29.8,29.88,NNW,329,8.0,8.0,71,0.00,OVC,,0.00,0.0,WeatherDisplay:10.37,2013-02-04 13:32:00,
2013-02-04 07:37:00,38.3,29.7,29.89,NW,320,6.9,6.9,71,0.00,SCT,,0.00,5.0,WeatherDisplay:10.37,2013-02-04 13:37:00,
2013-02-04 07:42:00,38.2,30.0,29.89,NNW,334,11.5,11.5,72,0.00,BKN,,0.00,7.0,WeatherDisplay:10.37,2013-02-04 13:42:00,
2013-02-04 07:47:00,38.0,29.8,29.90,NW,319,4.6,4.8,72,0.00,BKN,,0.00,9.0,WeatherDisplay:10.37,2013-02-04 13:47:00,
2013-02-04 07:52:00,37.8,29.6,29.90,WNW,303,9.2,9.2,72,0.00,BKN,,0.00,12.0,WeatherDisplay:10.37,2013-02-04 13:52:00,
2013-02-04 07:57:00,37.7,29.5,29.90,NNW,345,10.4,10.4,72,0.00,BKN,,0.00,16.0,WeatherDisplay:10.37,2013-02-04 13:57:00,
2013-02-04 08:02:00,37.5,29.3,29.90,NW,318,6.9,6.9,72,0.00,BKN,,0.00,18.0,WeatherDisplay:10.37,2013-02-04 14:02:00,
2013-02-04 08:07:00,37.5,29.6,29.91,NW,309,9.2,9.2,73,0.00,BKN,,0.00,19.0,WeatherDisplay:10.37,2013-02-04 14:07:00,
2013-02-04 08:12:00,37.5,29.6,29.91,NW,324,8.1,8.1,73,0.00,BKN,,0.00,19.0,WeatherDisplay:10.37,2013-02-04 14:12:00,
2013-02-04 08:17:00,37.6,29.7,29.91,NW,312,9.2,9.2,73,0.00,BKN,,0.00,21.0,WeatherDisplay:10.37,2013-02-04 14:17:00,
2013-02-04 08:22:00,37.8,29.6,29.91,NNW,348,6.9,6.9,72,0.00,BKN,,0.00,26.0,WeatherDisplay:10.37,2013-02-04 14:22:00,
2013-02-04 08:27:00,38.0,29.4,29.91,North,360,10.4,10.4,71,0.00,BKN,,0.00,26.0,WeatherDisplay:10.37,2013-02-04 14:27:00,
2013-02-04 08:32:00,38.2,29.6,29.91,NNW,338,9.2,9.2,71,0.00,BKN,,0.00,32.0,WeatherDisplay:10.37,2013-02-04 14:32:00,
2013-02-04 08:37:00,38.5,29.9,29.92,NW,320,9.2,9.2,71,0.00,BKN,,0.00,35.0,WeatherDisplay:10.37,2013-02-04 14:37:00,
2013-02-04 08:42:00,38.8,30.2,29.92,NNW,333,12.0,12.0,71,0.00,BKN,,0.00,32.0,WeatherDisplay:10.37,2013-02-04 14:42:00,
2013-02-04 08:47:00,39.2,30.2,29.92,NW,326,11.5,11.5,70,0.00,BKN,,0.00,51.0,WeatherDisplay:10.37,2013-02-04 14:47:00,
2013-02-04 08:52:00,39.5,30.5,29.93,NW,315,11.5,11.5,70,0.00,BKN,,0.00,49.0,WeatherDisplay:10.37,2013-02-04 14:52:00,
2013-02-04 08:57:00,39.8,30.5,29.93,NNW,345,11.5,11.5,69,0.00,BKN,,0.00,35.0,WeatherDisplay:10.37,2013-02-04 14:57:00,
2013-02-04 09:02:00,40.2,30.5,29.93,NNW,333,8.1,8.1,68,0.00,BKN,,0.00,69.0,WeatherDisplay:10.37,2013-02-04 15:02:00,
2013-02-04 09:07:00,40.5,30.8,29.93,NNW,346,11.5,11.5,68,0.00,BKN,,0.00,58.0,WeatherDisplay:10.37,2013-02-04 15:07:00,
2013-02-04 09:12:00,40.8,30.7,29.93,NW,315,11.5,11.5,67,0.00,BKN,,0.00,65.0,WeatherDisplay:10.37,2013-02-04 15:12:00,
2013-02-04 09:17:00,41.1,31.0,29.93,NNW,348,13.8,13.8,67,0.00,BKN,,0.00,77.0,WeatherDisplay:10.37,2013-02-04 15:17:00,
2013-02-04 09:22:00,41.3,30.8,29.93,NNE,30,15.0,15.0,66,0.00,SCT,,0.00,116.0,WeatherDisplay:10.37,2013-02-04 15:22:00,
2013-02-04 09:27:00,41.5,31.0,29.93,NNW,331,15.0,15.0,66,0.00,BKN,,0.00,67.0,WeatherDisplay:10.37,2013-02-04 15:27:00,
2013-02-04 09:32:00,41.8,31.3,29.93,NW,325,13.8,13.8,66,0.00,BKN,,0.00,118.0,WeatherDisplay:10.37,2013-02-04 15:32:00,
2013-02-04 09:37:00,42.2,30.9,29.93,North,11,15.0,15.0,64,0.00,BKN,,0.00,88.0,WeatherDisplay:10.37,2013-02-04 15:37:00,
2013-02-04 09:42:00,42.5,31.2,29.93,North,355,15.0,15.0,64,0.00,BKN,,0.00,84.0,WeatherDisplay:10.37,2013-02-04 15:42:00,
2013-02-04 09:47:00,42.9,31.6,29.93,NNW,343,11.5,11.5,64,0.00,BKN,,0.00,134.0,WeatherDisplay:10.37,2013-02-04 15:47:00,
2013-02-04 09:52:00,43.3,31.5,29.93,NNW,341,14.0,14.0,63,0.00,BKN,,0.00,95.0,WeatherDisplay:10.37,2013-02-04 15:52:00,
2013-02-04 09:57:00,43.6,31.4,29.94,North,360,15.0,15.0,62,0.00,BKN,,0.00,162.0,WeatherDisplay:10.37,2013-02-04 15:57:00,
2013-02-04 10:02:00,44.1,31.9,29.94,North,355,15.0,15.0,62,0.00,FEW,,0.00,218.0,WeatherDisplay:10.37,2013-02-04 16:02:00,
2013-02-04 10:07:00,44.6,32.0,29.94,NW,306,11.5,11.5,61,0.00,SCT,,0.00,278.0,WeatherDisplay:10.37,2013-02-04 16:07:00,
2013-02-04 10:12:00,45.0,31.9,29.94,NNW,330,11.5,11.5,60,0.00,BKN,,0.00,250.0,WeatherDisplay:10.37,2013-02-04 16:12:00,
2013-02-04 10:17:00,45.3,31.8,29.94,NE,46,18.4,18.4,59,0.00,CLR,,0.00,373.0,WeatherDisplay:10.37,2013-02-04 16:17:00,
2013-02-04 10:22:00,45.9,31.9,29.94,North,349,9.2,9.2,58,0.00,CLR,,0.00,394.0,WeatherDisplay:10.37,2013-02-04 16:22:00,
2013-02-04 10:27:00,46.5,32.1,29.95,NNW,339,8.1,8.1,57,0.00,CLR,,0.00,406.0,WeatherDisplay:10.37,2013-02-04 16:27:00,
2013-02-04 10:32:00,47.1,31.7,29.95,NE,34,11.5,11.5,55,0.00,CLR,,0.00,438.0,WeatherDisplay:10.37,2013-02-04 16:32:00,
2013-02-04 10:37:00,47.8,32.4,29.95,NNE,13,10.4,10.4,55,0.00,CLR,,0.00,441.0,WeatherDisplay:10.37,2013-02-04 16:37:00,
2013-02-04 10:42:00,48.3,31.5,29.95,NNW,333,11.5,11.5,52,0.00,CLR,,0.00,404.0,WeatherDisplay:10.37,2013-02-04 16:42:00,
2013-02-04 10:47:00,48.4,31.1,29.95,NNW,329,11.5,11.5,51,0.00,CLR,,0.00,469.0,WeatherDisplay:10.37,2013-02-04 16:47:00,
2013-02-04 10:52:00,48.8,31.5,29.95,NNE,30,8.1,8.1,51,0.00,CLR,,0.00,480.0,WeatherDisplay:10.37,2013-02-04 16:52:00,
2013-02-04 10:57:00,49.4,32.0,29.95,East,80,10.4,10.4,51,0.00,CLR,,0.00,487.0,WeatherDisplay:10.37,2013-02-04 16:57:00,
2013-02-04 11:02:00,49.8,31.9,29.95,NE,35,9.0,9.0,50,0.00,CLR,,0.00,497.0,WeatherDisplay:10.37,2013-02-04 17:02:00,
2013-02-04 11:07:00,50.2,31.8,29.95,NNE,13,9.2,9.2,49,0.00,CLR,,0.00,504.0,WeatherDisplay:10.37,2013-02-04 17:07:00,
2013-02-04 11:12:00,50.5,31.5,29.96,NNW,343,11.5,11.5,48,0.00,CLR,,0.00,513.0,WeatherDisplay:10.37,2013-02-04 17:12:00,
2013-02-04 11:17:00,50.3,31.3,29.96,NE,46,8.1,8.1,48,0.00,CLR,,0.00,520.0,WeatherDisplay:10.37,2013-02-04 17:17:00,
2013-02-04 11:22:00,50.8,31.8,29.96,ENE,63,12.7,12.7,48,0.00,CLR,,0.00,527.0,WeatherDisplay:10.37,2013-02-04 17:22:00,
2013-02-04 11:27:00,51.0,31.5,29.96,NE,34,10.4,10.4,47,0.00,CLR,,0.00,534.0,WeatherDisplay:10.37,2013-02-04 17:27:00,
2013-02-04 11:32:00,51.2,31.6,29.96,North,11,11.5,11.5,47,0.00,CLR,,0.00,540.0,WeatherDisplay:10.37,2013-02-04 17:32:00,
2013-02-04 11:37:00,51.2,31.1,29.96,NNE,27,12.0,12.0,46,0.00,CLR,,0.00,547.0,WeatherDisplay:10.37,2013-02-04 17:37:00,
2013-02-04 11:42:00,51.5,31.9,29.96,NNE,18,9.2,9.2,47,0.00,CLR,,0.00,552.0,WeatherDisplay:10.37,2013-02-04 17:42:00,
2013-02-04 11:47:00,51.8,31.7,29.95,NE,52,12.7,12.7,46,0.00,CLR,,0.00,559.0,WeatherDisplay:10.37,2013-02-04 17:47:00,
2013-02-04 11:52:00,51.9,31.7,29.96,NNW,343,10.0,10.0,46,0.00,CLR,,0.00,564.0,WeatherDisplay:10.37,2013-02-04 17:52:00,
2013-02-04 11:57:00,52.0,31.8,29.96,NNW,338,11.5,11.5,46,0.00,CLR,,0.00,568.0,WeatherDisplay:10.37,2013-02-04 17:57:00,
2013-02-04 12:03:00,52.4,32.2,29.95,North,350,11.5,11.5,46,0.00,CLR,,0.00,571.0,WeatherDisplay:10.37,2013-02-04 18:03:00,
2013-02-04 12:08:00,52.8,32.6,29.95,North,5,13.8,13.8,46,0.00,CLR,,0.00,464.0,WeatherDisplay:10.37,2013-02-04 18:08:00,
2013-02-04 12:13:00,53.1,32.3,29.96,NNE,22,9.2,9.2,45,0.00,CLR,,0.00,566.0,WeatherDisplay:10.37,2013-02-04 18:13:00,
2013-02-04 12:18:00,53.3,31.9,29.96,NW,325,10.4,10.4,44,0.00,CLR,,0.00,580.0,WeatherDisplay:10.37,2013-02-04 18:18:00,
2013-02-04 12:23:00,53.0,32.2,29.96,NNW,331,12.7,12.7,45,0.00,CLR,,0.00,582.0,WeatherDisplay:10.37,2013-02-04 18:23:00,
2013-02-04 12:28:00,52.8,32.0,29.96,North,355,9.2,9.2,45,0.00,CLR,,0.00,585.0,WeatherDisplay:10.37,2013-02-04 18:28:00,
2013-02-04 12:33:00,53.1,32.3,29.96,NNE,12,6.9,6.9,45,0.00,CLR,,0.00,582.0,WeatherDisplay:10.37,2013-02-04 18:33:00,
2013-02-04 12:38:00,53.0,32.2,29.95,NNW,331,10.4,10.4,45,0.00,SCT,,0.00,397.0,WeatherDisplay:10.37,2013-02-04 18:38:00,
2013-02-04 12:43:00,53.2,32.9,29.95,NNE,22,9.2,9.2,46,0.00,FEW,,0.00,454.0,WeatherDisplay:10.37,2013-02-04 18:43:00,
2013-02-04 12:48:00,53.3,32.5,29.95,North,355,6.9,6.9,45,0.00,BKN,,0.00,385.0,WeatherDisplay:10.37,2013-02-04 18:48:00,
2013-02-04 12:53:00,53.4,33.1,29.95,NE,50,10.4,10.4,46,0.00,SCT,,0.00,373.0,WeatherDisplay:10.37,2013-02-04 18:53:00,
2013-02-04 12:58:00,53.5,32.1,29.95,NW,324,13.8,13.8,44,0.00,FEW,,0.00,432.0,WeatherDisplay:10.37,2013-02-04 18:58:00,
2013-02-04 13:03:00,53.4,33.1,29.95,NNW,341,11.5,11.5,46,0.00,BKN,,0.00,301.0,WeatherDisplay:10.37,2013-02-04 19:03:00,
2013-02-04 13:08:00,53.2,32.4,29.94,North,351,13.8,13.8,45,0.00,BKN,,0.00,279.0,WeatherDisplay:10.37,2013-02-04 19:08:00,
2013-02-04 13:13:00,53.2,33.5,29.94,NNW,339,12.0,12.0,47,0.00,SCT,,0.00,445.0,WeatherDisplay:10.37,2013-02-04 19:13:00,
2013-02-04 13:18:00,53.4,32.6,29.94,NW,321,11.5,11.5,45,0.00,BKN,,0.00,195.0,WeatherDisplay:10.37,2013-02-04 19:18:00,
2013-02-04 13:23:00,53.6,33.3,29.94,NNE,20,10.4,10.4,46,0.00,CLR,,0.00,506.0,WeatherDisplay:10.37,2013-02-04 19:23:00,
2013-02-04 13:28:00,54.1,32.1,29.94,NE,34,8.1,8.1,43,0.00,CLR,,0.00,482.0,WeatherDisplay:10.37,2013-02-04 19:28:00,
2013-02-04 13:33:00,54.1,32.6,29.94,NNE,24,9.2,9.2,44,0.00,SCT,,0.00,320.0,WeatherDisplay:10.37,2013-02-04 19:33:00,
2013-02-04 13:38:00,54.2,32.7,29.94,NNW,336,13.8,13.8,44,0.00,SCT,,0.00,490.0,WeatherDisplay:10.37,2013-02-04 19:38:00,
2013-02-04 13:43:00,54.2,32.7,29.93,WNW,292,10.4,10.4,44,0.00,CLR,,0.00,441.0,WeatherDisplay:10.37,2013-02-04 19:43:00,
2013-02-04 13:48:00,54.1,32.6,29.93,NW,322,6.9,6.9,44,0.00,BKN,,0.00,116.0,WeatherDisplay:10.37,2013-02-04 19:48:00,
2013-02-04 13:53:00,54.6,33.1,29.93,NE,54,6.9,6.9,44,0.00,SCT,,0.00,410.0,WeatherDisplay:10.37,2013-02-04 19:53:00,
2013-02-04 13:58:00,54.5,33.0,29.93,NNW,338,10.0,10.0,44,0.00,CLR,,0.00,471.0,WeatherDisplay:10.37,2013-02-04 19:58:00,
2013-02-04 14:03:00,54.4,32.9,29.93,NE,35,12.7,12.7,44,0.00,CLR,,0.00,512.0,WeatherDisplay:10.37,2013-02-04 20:03:00,
2013-02-04 14:08:00,54.6,33.1,29.93,NE,53,4.6,4.6,44,0.00,CLR,,0.00,483.0,WeatherDisplay:10.37,2013-02-04 20:08:00,
2013-02-04 14:13:00,54.7,32.6,29.93,NNE,20,11.5,11.5,43,0.00,CLR,,0.00,538.0,WeatherDisplay:10.37,2013-02-04 20:13:00,
2013-02-04 14:18:00,54.6,33.7,29.92,NE,36,9.2,9.2,45,0.00,CLR,,0.00,526.0,WeatherDisplay:10.37,2013-02-04 20:18:00,
2013-02-04 14:23:00,54.9,32.8,29.93,NNE,19,9.2,9.2,43,0.00,CLR,,0.00,404.0,WeatherDisplay:10.37,2013-02-04 20:23:00,
2013-02-04 14:28:00,55.1,33.0,29.92,North,350,8.1,8.1,43,0.00,CLR,,0.00,425.0,WeatherDisplay:10.37,2013-02-04 20:28:00,
2013-02-04 14:33:00,55.1,33.0,29.92,North,355,11.5,11.5,43,0.00,FEW,,0.00,404.0,WeatherDisplay:10.37,2013-02-04 20:33:00,
2013-02-04 14:38:00,54.9,32.2,29.92,NNW,342,8.1,8.1,42,0.00,CLR,,0.00,399.0,WeatherDisplay:10.37,2013-02-04 20:38:00,
2013-02-04 14:43:00,55.0,32.3,29.92,NE,34,10.4,10.4,42,0.00,CLR,,0.00,496.0,WeatherDisplay:10.37,2013-02-04 20:43:00,
2013-02-04 14:48:00,55.3,33.2,29.92,North,9,6.9,6.9,43,0.00,CLR,,0.00,489.0,WeatherDisplay:10.37,2013-02-04 20:48:00,
2013-02-04 14:53:00,55.3,32.6,29.92,North,5,6.9,6.9,42,0.00,CLR,,0.00,461.0,WeatherDisplay:10.37,2013-02-04 20:53:00,
2013-02-04 14:58:00,55.3,32.0,29.92,ENE,67,9.2,9.2,41,0.00,CLR,,0.00,471.0,WeatherDisplay:10.37,2013-02-04 20:58:00,
2013-02-04 15:03:00,55.4,32.1,29.93,NNE,20,8.1,8.1,41,0.00,CLR,,0.00,504.0,WeatherDisplay:10.37,2013-02-04 21:03:00,
2013-02-04 15:08:00,55.5,32.8,29.92,NNW,333,8.1,8.1,42,0.00,CLR,,0.00,469.0,WeatherDisplay:10.37,2013-02-04 21:08:00,
2013-02-04 15:13:00,55.4,32.1,29.92,North,355,9.2,9.2,41,0.00,CLR,,0.00,448.0,WeatherDisplay:10.37,2013-02-04 21:13:00,
2013-02-04 15:18:00,55.3,32.0,29.92,ENE,70,6.9,6.9,41,0.00,CLR,,0.00,432.0,WeatherDisplay:10.37,2013-02-04 21:18:00,
2013-02-04 15:23:00,55.4,32.1,29.92,North,11,11.5,11.5,41,0.00,CLR,,0.00,429.0,WeatherDisplay:10.37,2013-02-04 21:23:00,
2013-02-04 15:28:00,55.4,31.5,29.92,NNW,340,8.1,8.1,40,0.00,CLR,,0.00,434.0,WeatherDisplay:10.37,2013-02-04 21:28:00,
2013-02-04 15:33:00,55.1,31.2,29.92,NNE,15,11.5,11.5,40,0.00,CLR,,0.00,276.0,WeatherDisplay:10.37,2013-02-04 21:33:00,
2013-02-04 15:38:00,55.0,32.3,29.92,NNE,26,6.9,6.9,42,0.00,FEW,,0.00,234.0,WeatherDisplay:10.37,2013-02-04 21:38:00,
2013-02-04 15:43:00,55.1,31.8,29.92,NE,36,8.1,8.1,41,0.00,CLR,,0.00,283.0,WeatherDisplay:10.37,2013-02-04 21:43:00,
2013-02-04 15:48:00,54.9,32.2,29.93,NE,49,6.9,6.9,42,0.00,SCT,,0.00,153.0,WeatherDisplay:10.37,2013-02-04 21:48:00,
2013-02-04 15:53:00,54.7,31.4,29.93,North,5,6.9,6.9,41,0.00,CLR,,0.00,376.0,WeatherDisplay:10.37,2013-02-04 21:53:00,
2013-02-04 15:58:00,54.7,31.4,29.93,NW,326,9.2,9.2,41,0.00,CLR,,0.00,202.0,WeatherDisplay:10.37,2013-02-04 21:58:00,
2013-02-04 16:03:00,54.2,31.6,29.93,NE,52,10.4,10.4,42,0.00,SCT,,0.00,135.0,WeatherDisplay:10.37,2013-02-04 22:03:00,
2013-02-04 16:08:00,53.6,31.0,29.93,North,355,11.5,11.5,42,0.00,BKN,,0.00,114.0,WeatherDisplay:10.37,2013-02-04 22:08:00,
2013-02-04 16:13:00,53.1,31.2,29.93,NNW,348,10.4,10.4,43,0.00,BKN,,0.00,120.0,WeatherDisplay:10.37,2013-02-04 22:13:00,
2013-02-04 16:18:00,52.8,30.9,29.93,NNW,347,8.1,8.1,43,0.00,SCT,,0.00,125.0,WeatherDisplay:10.37,2013-02-04 22:18:00,
2013-02-04 16:23:00,52.7,30.8,29.94,North,355,8.1,8.1,43,0.00,SCT,,0.00,125.0,WeatherDisplay:10.37,2013-02-04 22:23:00,
2013-02-04 16:28:00,52.6,30.7,29.93,NNW,348,8.1,8.1,43,0.00,SCT,,0.00,100.0,WeatherDisplay:10.37,2013-02-04 22:28:00,
2013-02-04 16:33:00,52.6,30.7,29.93,NE,38,10.4,10.4,43,0.00,BKN,,0.00,84.0,WeatherDisplay:10.37,2013-02-04 22:33:00,
2013-02-04 16:38:00,52.4,30.5,29.93,NNE,15,6.9,6.9,43,0.00,BKN,,0.00,74.0,WeatherDisplay:10.37,2013-02-04 22:38:00,
2013-02-04 16:43:00,52.2,30.9,29.93,North,355,3.5,3.5,44,0.00,BKN,,0.00,79.0,WeatherDisplay:10.37,2013-02-04 22:43:00,
2013-02-04 16:48:00,52.0,31.3,29.93,North,5,6.9,6.9,45,0.00,BKN,,0.00,70.0,WeatherDisplay:10.37,2013-02-04 22:48:00,
2013-02-04 16:53:00,51.9,31.2,29.93,NW,325,8.1,8.1,45,0.00,BKN,,0.00,60.0,WeatherDisplay:10.37,2013-02-04 22:53:00,
2013-02-04 16:58:00,51.7,31.6,29.94,NE,34,5.8,5.8,46,0.00,BKN,,0.00,60.0,WeatherDisplay:10.37,2013-02-04 22:58:00,
2013-02-04 17:03:00,51.5,31.9,29.94,NNW,348,9.2,9.2,47,0.00,BKN,,0.00,53.0,WeatherDisplay:10.37,2013-02-04 23:03:00,
2013-02-04 17:08:00,51.3,31.7,29.94,NNW,346,8.1,8.1,47,0.00,BKN,,0.00,30.0,WeatherDisplay:10.37,2013-02-04 23:08:00,
2013-02-04 17:13:00,51.1,32.1,29.94,North,11,8.1,8.1,48,0.00,BKN,,0.00,25.0,WeatherDisplay:10.37,2013-02-04 23:13:00,
2013-02-04 17:18:00,50.8,31.8,29.94,NNW,340,7.0,7.0,48,0.00,BKN,,0.00,23.0,WeatherDisplay:10.37,2013-02-04 23:18:00,
2013-02-04 17:23:00,50.5,32.0,29.94,NE,41,8.1,8.1,49,0.00,BKN,,0.00,21.0,WeatherDisplay:10.37,2013-02-04 23:23:00,
2013-02-04 17:28:00,50.1,31.7,29.94,North,355,4.0,4.0,49,0.00,BKN,,0.00,19.0,WeatherDisplay:10.37,2013-02-04 23:28:00,
2013-02-04 17:33:00,49.8,31.9,29.94,NNE,26,3.5,3.5,50,0.00,BKN,,0.00,18.0,WeatherDisplay:10.37,2013-02-04 23:33:00,
2013-02-04 17:38:00,49.5,31.6,29.94,NNE,17,5.8,5.8,50,0.00,BKN,,0.00,14.0,WeatherDisplay:10.37,2013-02-04 23:38:00,
2013-02-04 17:43:00,49.1,31.7,29.94,NNW,348,6.9,6.9,51,0.00,SCT,,0.00,12.0,WeatherDisplay:10.37,2013-02-04 23:43:00,
2013-02-04 17:48:00,48.7,31.8,29.94,North,355,5.8,5.8,52,0.00,CLR,,0.00,9.0,WeatherDisplay:10.37,2013-02-04 23:48:00,
2013-02-04 17:53:00,48.3,31.5,29.94,NNE,25,4.6,4.6,52,0.00,OVC,,0.00,7.0,WeatherDisplay:10.37,2013-02-04 23:53:00,
2013-02-04 17:58:00,47.9,31.6,29.94,NNE,13,4.6,4.6,53,0.00,CLR,,0.00,0.0,WeatherDisplay:10.37,2013-02-04 23:58:00,
2013-02-04 18:03:00,47.5,31.7,29.94,NNE,19,2.3,2.3,54,0.00,CLR,,0.00,0.0,WeatherDisplay:10.37,2013-02-05 00:03:00,
2013-02-04 18:08:00,47.2,31.4,29.94,NNE,24,3.5,3.5,54,0.00,CLR,,0.00,0.0,WeatherDisplay:10.37,2013-02-05 00:08:00,
2013-02-04 18:13:00,46.7,31.4,29.94,NNE,15,3.5,3.5,55,0.00,CLR,,0.00,0.0,WeatherDisplay:10.37,2013-02-05 00:13:00,
2013-02-04 18:18:00,46.3,31.4,29.94,North,360,3.5,3.5,56,0.00,CLR,,0.00,0.0,WeatherDisplay:10.37,2013-02-05 00:18:00,
2013-02-04 18:23:00,46.0,31.2,29.95,NNW,348,3.5,3.5,56,0.00,CLR,,0.00,0.0,WeatherDisplay:10.37,2013-02-05 00:23:00,
2013-02-04 18:28:00,45.7,31.3,29.95,North,11,3.5,3.5,57,0.00,CLR,,0.00,0.0,WeatherDisplay:10.37,2013-02-05 00:28:00,
2013-02-04 18:33:00,45.4,31.0,29.95,North,9,3.5,3.5,57,0.00,CLR,,0.00,0.0,WeatherDisplay:10.37,2013-02-05 00:33:00,
2013-02-04 18:38:00,45.1,31.2,29.95,North,5,2.3,2.3,58,0.00,CLR,,0.00,0.0,WeatherDisplay:10.37,2013-02-05 00:38:00,
2013-02-04 18:43:00,44.9,31.0,29.95,North,5,2.3,2.3,58,0.00,CLR,,0.00,0.0,WeatherDisplay:10.37,2013-02-05 00:43:00,
2013-02-04 18:48:00,44.5,31.1,29.96,North,5,3.5,3.5,59,0.00,CLR,,0.00,0.0,WeatherDisplay:10.37,2013-02-05 00:48:00,
2013-02-04 18:53:00,44.1,31.1,29.96,North,5,2.3,2.3,60,0.00,CLR,,0.00,0.0,WeatherDisplay:10.37,2013-02-05 00:53:00,
2013-02-04 18:58:00,43.8,30.8,29.96,North,5,2.3,2.3,60,0.00,CLR,,0.00,0.0,WeatherDisplay:10.37,2013-02-05 00:58:00,
2013-02-04 19:03:00,43.4,30.4,29.96,North,5,3.5,3.5,60,0.00,CLR,,0.00,0.0,WeatherDisplay:10.37,2013-02-05 01:03:00,
2013-02-04 19:08:00,43.0,30.5,29.96,North,5,1.1,1.1,61,0.00,CLR,,0.00,0.0,WeatherDisplay:10.37,2013-02-05 01:08:00,
2013-02-04 19:13:00,42.5,30.4,29.96,North,5,1.1,1.1,62,0.00,CLR,,0.00,0.0,WeatherDisplay:10.37,2013-02-05 01:13:00,
2013-02-04 19:18:00,42.2,30.1,29.96,North,5,2.3,2.3,62,0.00,CLR,,0.00,0.0,WeatherDisplay:10.37,2013-02-05 01:18:00,
2013-02-04 19:23:00,41.8,30.1,29.96,North,5,2.3,2.3,63,0.00,CLR,,0.00,0.0,WeatherDisplay:10.37,2013-02-05 01:23:00,
2013-02-04 19:28:00,41.3,30.0,29.96,North,5,2.3,2.3,64,0.00,CLR,,0.00,0.0,WeatherDisplay:10.37,2013-02-05 01:28:00,
2013-02-04 19:33:00,41.0,30.1,29.97,North,5,2.3,2.3,65,0.00,CLR,,0.00,0.0,WeatherDisplay:10.37,2013-02-05 01:33:00,
2013-02-04 19:38:00,40.8,30.3,29.97,North,5,3.5,3.5,66,0.00,CLR,,0.00,0.0,WeatherDisplay:10.37,2013-02-05 01:38:00,
2013-02-04 19:43:00,40.5,30.4,29.97,North,5,2.3,2.3,67,0.00,CLR,,0.00,0.0,WeatherDisplay:10.37,2013-02-05 01:43:00,
2013-02-04 19:48:00,40.3,30.2,29.97,North,5,3.5,3.5,67,0.00,CLR,,0.00,0.0,WeatherDisplay:10.37,2013-02-05 01:48:00,
2013-02-04 19:53:00,40.0,30.3,29.97,North,5,2.3,2.3,68,0.00,CLR,,0.00,0.0,WeatherDisplay:10.37,2013-02-05 01:53:00,
2013-02-04 19:58:00,39.8,30.1,29.97,North,5,2.3,2.3,68,0.00,CLR,,0.00,0.0,WeatherDisplay:10.37,2013-02-05 01:58:00,
2013-02-04 20:03:00,39.5,29.8,29.97,North,5,3.5,3.5,68,0.00,CLR,,0.00,0.0,WeatherDisplay:10.37,2013-02-05 02:03:00,
2013-02-04 20:08:00,39.2,29.9,29.97,NNE,22,3.5,3.5,69,0.00,CLR,,0.00,0.0,WeatherDisplay:10.37,2013-02-05 02:08:00,
2013-02-04 20:13:00,39.1,30.1,29.97,NNE,26,2.3,2.3,70,0.00,CLR,,0.00,0.0,WeatherDisplay:10.37,2013-02-05 02:13:00,
2013-02-04 20:18:00,38.9,30.3,29.98,NNE,28,3.5,3.5,71,0.00,CLR,,0.00,0.0,WeatherDisplay:10.37,2013-02-05 02:18:00,
2013-02-04 20:23:00,38.8,30.2,29.98,NNE,26,3.5,3.5,71,0.00,CLR,,0.00,0.0,WeatherDisplay:10.37,2013-02-05 02:23:00,
2013-02-04 20:28:00,38.7,30.1,29.98,NNE,26,3.5,3.5,71,0.00,CLR,,0.00,0.0,WeatherDisplay:10.37,2013-02-05 02:28:00,
2013-02-04 20:33:00,38.6,30.4,29.98,NNE,26,2.3,2.3,72,0.00,CLR,,0.00,0.0,WeatherDisplay:10.37,2013-02-05 02:33:00,
2013-02-04 20:38:00,38.5,30.3,29.98,NNE,28,3.5,3.5,72,0.00,CLR,,0.00,0.0,WeatherDisplay:10.37,2013-02-05 02:38:00,
2013-02-04 20:43:00,38.6,30.4,29.98,NNE,28,3.5,3.5,72,0.00,CLR,,0.00,0.0,WeatherDisplay:10.37,2013-02-05 02:43:00,
2013-02-04 20:48:00,38.7,30.4,29.98,NNE,28,3.5,3.5,72,0.00,CLR,,0.00,0.0,WeatherDisplay:10.37,2013-02-05 02:48:00,
2013-02-04 20:53:00,38.8,30.2,29.99,NNE,28,3.5,3.5,71,0.00,CLR,,0.00,0.0,WeatherDisplay:10.37,2013-02-05 02:53:00,
2013-02-04 20:58:00,38.7,30.4,29.99,NE,36,2.3,2.3,72,0.00,CLR,,0.00,0.0,WeatherDisplay:10.37,2013-02-05 02:58:00,
2013-02-04 21:03:00,38.6,30.0,29.99,NE,35,3.5,3.5,71,0.00,CLR,,0.00,0.0,WeatherDisplay:10.37,2013-02-05 03:03:00,
2013-02-04 21:08:00,38.5,29.9,29.99,NE,44,3.5,3.5,71,0.00,CLR,,0.00,0.0,WeatherDisplay:10.37,2013-02-05 03:08:00,
2013-02-04 21:13:00,38.4,30.2,29.99,NE,43,3.5,3.5,72,0.00,CLR,,0.00,0.0,WeatherDisplay:10.37,2013-02-05 03:13:00,
2013-02-04 21:18:00,38.3,30.1,29.99,NE,43,0.0,0.0,72,0.00,CLR,,0.00,0.0,WeatherDisplay:10.37,2013-02-05 03:18:00,
2013-02-04 21:23:00,38.2,30.0,29.99,NE,43,1.1,0.0,72,0.00,CLR,,0.00,0.0,WeatherDisplay:10.37,2013-02-05 03:23:00,
2013-02-04 21:28:00,37.9,29.7,29.99,NE,43,3.0,3.0,72,0.00,CLR,,0.00,0.0,WeatherDisplay:10.37,2013-02-05 03:28:00,
2013-02-04 21:33:00,37.6,29.4,29.99,NNE,22,2.3,2.3,72,0.00,CLR,,0.00,0.0,WeatherDisplay:10.37,2013-02-05 03:33:00,
2013-02-04 21:38:00,37.3,29.4,30.00,NNE,22,3.5,3.5,73,0.00,CLR,,0.00,0.0,WeatherDisplay:10.37,2013-02-05 03:38:00,
2013-02-04 21:43:00,37.0,29.5,29.99,NNE,22,2.3,2.3,74,0.00,CLR,,0.00,0.0,WeatherDisplay:10.37,2013-02-05 03:43:00,
2013-02-04 21:48:00,36.9,29.4,29.99,NE,37,3.5,3.5,74,0.00,CLR,,0.00,0.0,WeatherDisplay:10.37,2013-02-05 03:48:00,
2013-02-04 21:53:00,36.7,29.5,29.99,NE,37,2.3,2.3,75,0.00,CLR,,0.00,0.0,WeatherDisplay:10.37,2013-02-05 03:53:00,
2013-02-04 21:58:00,36.6,29.1,29.99,NE,37,0.0,0.0,74,0.00,CLR,,0.00,0.0,WeatherDisplay:10.37,2013-02-05 03:58:00,
2013-02-04 22:03:00,36.4,29.2,29.99,NE,37,0.0,0.0,75,0.00,CLR,,0.00,0.0,WeatherDisplay:10.37,2013-02-05 04:03:00,
2013-02-04 22:08:00,36.2,29.4,29.99,NE,37,0.0,0.0,76,0.00,CLR,,0.00,0.0,WeatherDisplay:10.37,2013-02-05 04:08:00,
2013-02-04 22:13:00,36.0,29.2,29.98,NE,37,0.0,0.0,76,0.00,CLR,,0.00,0.0,WeatherDisplay:10.37,2013-02-05 04:13:00,
2013-02-04 22:18:00,35.9,29.1,29.98,NE,37,0.0,0.0,76,0.00,CLR,,0.00,0.0,WeatherDisplay:10.37,2013-02-05 04:18:00,
2013-02-04 22:23:00,35.6,28.8,29.99,NE,37,0.0,0.0,76,0.00,CLR,,0.00,0.0,WeatherDisplay:10.37,2013-02-05 04:23:00,
2013-02-04 22:28:00,35.3,28.8,29.99,NE,37,0.0,0.0,77,0.00,CLR,,0.00,0.0,WeatherDisplay:10.37,2013-02-05 04:28:00,
2013-02-04 22:33:00,35.1,28.6,29.99,NE,37,0.0,0.0,77,0.00,CLR,,0.00,0.0,WeatherDisplay:10.37,2013-02-05 04:33:00,
2013-02-04 22:38:00,34.8,28.3,29.99,NE,37,0.0,0.0,77,0.00,CLR,,0.00,0.0,WeatherDisplay:10.37,2013-02-05 04:38:00,
2013-02-04 22:43:00,34.5,28.0,29.98,NE,37,0.0,0.0,77,0.00,CLR,,0.00,0.0,WeatherDisplay:10.37,2013-02-05 04:43:00,
2013-02-04 22:48:00,34.2,27.7,29.98,NE,37,0.0,0.0,77,0.00,CLR,,0.00,0.0,WeatherDisplay:10.37,2013-02-05 04:48:00,
2013-02-04 22:53:00,33.8,27.7,29.98,NE,37,0.0,0.0,78,0.00,CLR,,0.00,0.0,WeatherDisplay:10.37,2013-02-05 04:53:00,
2013-02-04 22:58:00,33.5,27.7,29.97,NE,37,0.0,0.0,79,0.00,CLR,,0.00,0.0,WeatherDisplay:10.37,2013-02-05 04:58:00,
2013-02-04 23:00:00,33.4,27.6,29.98,NE,37,0.0,0.0,79,0.00,CLR,,0.00,0.0,WeatherDisplay:10.37,2013-02-05 05:00:00,
2013-02-04 23:05:00,33.2,27.7,29.97,NE,37,0.0,0.0,80,0.00,CLR,,0.00,0.0,WeatherDisplay:10.37,2013-02-05 05:05:00,
2013-02-04 23:10:00,33.0,27.5,29.97,NE,37,0.0,0.0,80,0.00,CLR,,0.00,0.0,WeatherDisplay:10.37,2013-02-05 05:10:00,
2013-02-04 23:15:00,32.8,27.3,29.97,NE,37,0.0,0.0,80,0.00,CLR,,0.00,0.0,WeatherDisplay:10.37,2013-02-05 05:15:00,
2013-02-04 23:20:00,32.5,27.0,29.97,NE,37,0.0,0.0,80,0.00,CLR,,0.00,0.0,WeatherDisplay:10.37,2013-02-05 05:20:00,
2013-02-04 23:25:00,32.2,26.7,29.97,NE,37,0.0,0.0,80,0.00,CLR,,0.00,0.0,WeatherDisplay:10.37,2013-02-05 05:25:00,
2013-02-04 23:30:00,31.9,26.7,29.97,NE,37,0.0,0.0,81,0.00,CLR,,0.00,0.0,WeatherDisplay:10.37,2013-02-05 05:30:00,
2013-02-04 23:35:00,31.6,26.4,29.97,NE,37,0.0,0.0,81,0.00,CLR,,0.00,0.0,WeatherDisplay:10.37,2013-02-05 05:35:00,
2013-02-04 23:40:00,31.4,26.2,29.97,NE,37,0.0,0.0,81,0.00,CLR,,0.00,0.0,WeatherDisplay:10.37,2013-02-05 05:40:00,
2013-02-04 23:45:00,31.3,26.7,29.97,NE,37,0.0,0.0,83,0.00,CLR,,0.00,0.0,WeatherDisplay:10.37,2013-02-05 05:45:00,
2013-02-04 23:50:00,31.2,26.6,29.97,NE,37,1.1,1.1,83,0.00,CLR,,0.00,0.0,WeatherDisplay:10.37,2013-02-05 05:50:00,
2013-02-04 23:55:00,31.1,26.5,29.97,NE,37,1.1,1.1,83,0.00,CLR,,0.00,0.0,WeatherDisplay:10.37,2013-02-05 05:55:00,